Airport View

Enter AWOS ICAO identifier for current METAR.

ex. KFNL

KDED 262155Z AUTO 30007KT 10SM SCT009 BKN048 OVC065 17/ A2993 RMK AO2 LTG DSNT E P0004

26 Feb 2020 22:24

Frequency: 119.575

Phone: 386-740-5811

Other Area AWOS: KDAB - KOMN - KEVB - KSFB

TAF COR KDAB 262035Z 2618/2718 35006KT P6SM VCTS SCT025CB OVC035 TEMPO 2620/2622 2SM TSRA BKN025CB FM270000 29009KT P6SM SHRA BKN030 OVC070 FM270800 30009KT P6SM SCT035 OVC120 FM271100 31011KT P6SM SKC